Etusivu
METAR-TAF:

METAR-TAF

Lentoasemat :

Bahrain, Bahrain

Bahrainin kansainvälinen lentoasema

Leveyspiiri: 26-16N, Pituuspiiri: 050-39E, korkeus merenpinnasta: 2 m

Tämänhetkinen sää

Tämä raportti tehtiin 27 minuuttia sitten, kello 21.00 UTC
Tuuli 7 kn idästä
Lämpötila 35°C
Kosteus 71%
Ilmanpaine 1000 hPa
Näkyvyys: 7000 m
selkeää

METAR: OBBI 172100Z 08007KT 7000 SKC 35/29 Q1000 NOSIG

Aika: 00:27 (21:27 UTC)

Sääennuste

Tämä raportti tehtiin 4 tuntia ja 27 minuuttia sitten, kello 17.00 UTC
Ennuste voimassa 17. päivästä klo 18 UTC - 19. päivään klo 00 UTC
Tuuli 5 kn eri suunnista
Näkyvyys: 7000 m
Ajoittain
18. päivästä klo 01 UTC - 18. päivään klo 07 UTC
Näkyvyys: 4000 m
usvaa
Tulossa
18. päivästä klo 08 UTC - 18. päivään klo 10 UTC
Tuuli 10 kn koillisesta
Tulossa
18. päivästä klo 18 UTC - 18. päivään klo 20 UTC
Tuuli 5 kn eri suunnista

TAF: OBBI 171700Z 1718/1900 VRB05KT 7000 NSC TEMPO 1801/1807 4000 HZ BECMG 1808/1810 05010KT BECMG 1818/1820 VRB05KT

Säähavainnot ja -ennusteet yli 4000 lentoasemalta (METAR- ja TAF-raportit).

Käytössä olevat sääasemat on merkitty karttaan keltaisilla ja punaisilla pisteillä.

Aseta hiiri pisteen päälle nähdäksesi sääaseman nimen.

Klikkaa sitten nähdäksesi säähavainnot ja -ennusteet.

Kartan vaihtaminen: klikkaa mustalla rastilla varustettuja vihreitä pisteitä, niin voit zoomata sisään; viivalla varustettua vihreää pistettä, niin voit zoomata ulos tai vihreitä nuolia, niin pääset viereisille kartoille.


METAR-TAF: